sensor_id;sensor_type;location;lat;lon;timestamp;pressure;altitude;pressure_sealevel;temperature;humidity
30338;BME280;17143;51.888;5.408;2023-05-24T00:02:38;102333.69;;;10.46;89.86
30338;BME280;17143;51.888;5.408;2023-05-24T00:17:40;102308.03;;;10.29;91.07
30338;BME280;17143;51.888;5.408;2023-05-24T00:32:42;102292.91;;;10.13;92.78
30338;BME280;17143;51.888;5.408;2023-05-24T00:47:44;102292.69;;;10.00;93.57
30338;BME280;17143;51.888;5.408;2023-05-24T01:02:46;102270.63;;;9.85;95.47
30338;BME280;17143;51.888;5.408;2023-05-24T01:17:53;102277.72;;;9.76;95.62
30338;BME280;17143;51.888;5.408;2023-05-24T01:32:58;102264.00;;;9.57;96.58
30338;BME280;17143;51.888;5.408;2023-05-24T01:48:11;102278.38;;;9.42;98.88
30338;BME280;17143;51.888;5.408;2023-05-24T02:03:15;102283.63;;;9.32;99.33
30338;BME280;17143;51.888;5.408;2023-05-24T02:18:17;102300.94;;;9.21;100.00
30338;BME280;17143;51.888;5.408;2023-05-24T02:33:19;102285.50;;;9.12;100.00
30338;BME280;17143;51.888;5.408;2023-05-24T02:48:21;102293.06;;;8.99;100.00
30338;BME280;17143;51.888;5.408;2023-05-24T03:03:23;102292.00;;;8.87;100.00
30338;BME280;17143;51.888;5.408;2023-05-24T03:18:25;102286.72;;;8.76;100.00
30338;BME280;17143;51.888;5.408;2023-05-24T03:33:29;102270.88;;;8.63;100.00
30338;BME280;17143;51.888;5.408;2023-05-24T03:48:32;102272.56;;;8.62;100.00
30338;BME280;17143;51.888;5.408;2023-05-24T04:03:34;102271.25;;;8.67;100.00
30338;BME280;17143;51.888;5.408;2023-05-24T04:18:36;102258.25;;;8.77;100.00
30338;BME280;17143;51.888;5.408;2023-05-24T04:33:38;102263.66;;;9.00;100.00
30338;BME280;17143;51.888;5.408;2023-05-24T04:48:40;102265.09;;;12.46;100.00
30338;BME280;17143;51.888;5.408;2023-05-24T05:03:42;102281.69;;;14.30;93.07
30338;BME280;17143;51.888;5.408;2023-05-24T05:18:44;102281.38;;;16.64;85.57
30338;BME280;17143;51.888;5.408;2023-05-24T05:33:47;102278.34;;;17.77;77.63
30338;BME280;17143;51.888;5.408;2023-05-24T05:48:49;102288.59;;;18.44;68.40
30338;BME280;17143;51.888;5.408;2023-05-24T06:03:51;102290.53;;;18.67;68.37
30338;BME280;17143;51.888;5.408;2023-05-24T06:18:53;102305.56;;;18.68;64.95
30338;BME280;17143;51.888;5.408;2023-05-24T06:33:55;102302.97;;;18.70;64.58
30338;BME280;17143;51.888;5.408;2023-05-24T06:48:57;102321.59;;;19.13;61.65
30338;BME280;17143;51.888;5.408;2023-05-24T07:03:59;102308.50;;;19.56;58.87
30338;BME280;17143;51.888;5.408;2023-05-24T07:19:01;102330.13;;;20.11;57.25
30338;BME280;17143;51.888;5.408;2023-05-24T07:34:04;102313.38;;;18.67;59.89
30338;BME280;17143;51.888;5.408;2023-05-24T07:49:06;102314.47;;;19.94;56.73
30338;BME280;17143;51.888;5.408;2023-05-24T08:04:08;102325.00;;;20.59;54.20
30338;BME280;17143;51.888;5.408;2023-05-24T08:19:10;102325.97;;;20.87;52.42
30338;BME280;17143;51.888;5.408;2023-05-24T08:34:12;102312.50;;;21.30;50.59
30338;BME280;17143;51.888;5.408;2023-05-24T08:49:15;102313.00;;;21.18;50.52
30338;BME280;17143;51.888;5.408;2023-05-24T09:04:17;102297.53;;;21.57;48.14
30338;BME280;17143;51.888;5.408;2023-05-24T09:19:20;102293.81;;;21.52;47.42
30338;BME280;17143;51.888;5.408;2023-05-24T09:34:22;102293.91;;;20.10;50.18
30338;BME280;17143;51.888;5.408;2023-05-24T09:49:24;102289.31;;;21.22;48.75
30338;BME280;17143;51.888;5.408;2023-05-24T10:04:32;102296.69;;;19.90;49.89
30338;BME280;17143;51.888;5.408;2023-05-24T10:19:36;102290.63;;;19.93;52.18
30338;BME280;17143;51.888;5.408;2023-05-24T10:34:39;102293.41;;;19.75;51.32
30338;BME280;17143;51.888;5.408;2023-05-24T10:49:48;102293.03;;;19.25;53.28
30338;BME280;17143;51.888;5.408;2023-05-24T11:04:51;102291.31;;;19.46;53.57
30338;BME280;17143;51.888;5.408;2023-05-24T11:19:54;102290.16;;;20.04;51.71
30338;BME280;17143;51.888;5.408;2023-05-24T11:34:56;102293.56;;;20.00;52.46
30338;BME280;17143;51.888;5.408;2023-05-24T11:49:58;102274.72;;;20.61;50.70
30338;BME280;17143;51.888;5.408;2023-05-24T12:05:07;102282.66;;;20.61;48.79
30338;BME280;17143;51.888;5.408;2023-05-24T12:20:10;102277.91;;;20.52;49.57
30338;BME280;17143;51.888;5.408;2023-05-24T12:35:12;102273.19;;;20.44;50.18
30338;BME280;17143;51.888;5.408;2023-05-24T12:50:14;102270.72;;;20.72;49.40
30338;BME280;17143;51.888;5.408;2023-05-24T13:05:17;102261.06;;;20.74;48.94
30338;BME280;17143;51.888;5.408;2023-05-24T13:20:19;102265.53;;;20.75;50.50
30338;BME280;17143;51.888;5.408;2023-05-24T13:35:21;102270.31;;;20.61;50.40
30338;BME280;17143;51.888;5.408;2023-05-24T13:50:24;102266.44;;;20.06;51.90
30338;BME280;17143;51.888;5.408;2023-05-24T14:05:26;102260.84;;;19.76;51.91
30338;BME280;17143;51.888;5.408;2023-05-24T14:20:28;102254.97;;;19.61;52.50
30338;BME280;17143;51.888;5.408;2023-05-24T14:35:30;102254.97;;;19.61;52.35
30338;BME280;17143;51.888;5.408;2023-05-24T14:50:33;102257.59;;;20.05;53.29
30338;BME280;17143;51.888;5.408;2023-05-24T15:05:35;102250.75;;;20.12;52.27
30338;BME280;17143;51.888;5.408;2023-05-24T15:20:37;102245.56;;;20.36;49.89
30338;BME280;17143;51.888;5.408;2023-05-24T15:35:39;102241.22;;;20.63;48.70
30338;BME280;17143;51.888;5.408;2023-05-24T15:50:41;102246.16;;;20.29;49.06
30338;BME280;17143;51.888;5.408;2023-05-24T16:05:44;102259.06;;;20.21;51.09
30338;BME280;17143;51.888;5.408;2023-05-24T16:20:46;102253.22;;;19.00;54.09
30338;BME280;17143;51.888;5.408;2023-05-24T16:35:49;102248.59;;;18.54;55.39
30338;BME280;17143;51.888;5.408;2023-05-24T16:50:51;102249.44;;;18.34;57.46
30338;BME280;17143;51.888;5.408;2023-05-24T17:05:53;102238.28;;;18.22;57.89
30338;BME280;17143;51.888;5.408;2023-05-24T17:20:57;102244.97;;;18.14;58.46
30338;BME280;17143;51.888;5.408;2023-05-24T17:36:00;102248.69;;;17.81;59.92
30338;BME280;17143;51.888;5.408;2023-05-24T17:51:05;102241.75;;;17.47;61.19
30338;BME280;17143;51.888;5.408;2023-05-24T18:06:09;102253.28;;;17.49;61.39
30338;BME280;17143;51.888;5.408;2023-05-24T18:21:11;102258.00;;;17.21;62.13
30338;BME280;17143;51.888;5.408;2023-05-24T18:36:13;102264.00;;;17.01;63.33
30338;BME280;17143;51.888;5.408;2023-05-24T18:51:15;102279.19;;;16.89;64.81
30338;BME280;17143;51.888;5.408;2023-05-24T19:06:18;102288.50;;;16.66;68.47
30338;BME280;17143;51.888;5.408;2023-05-24T19:21:21;102301.94;;;16.55;70.48
30338;BME280;17143;51.888;5.408;2023-05-24T19:36:23;102306.50;;;16.42;72.13
30338;BME280;17143;51.888;5.408;2023-05-24T19:51:25;102323.09;;;16.25;73.54
30338;BME280;17143;51.888;5.408;2023-05-24T20:06:31;102326.88;;;16.14;74.76
30338;BME280;17143;51.888;5.408;2023-05-24T20:21:33;102338.16;;;15.97;75.66
30338;BME280;17143;51.888;5.408;2023-05-24T20:36:35;102339.69;;;15.63;78.09
30338;BME280;17143;51.888;5.408;2023-05-24T20:51:39;102361.16;;;15.27;80.97
30338;BME280;17143;51.888;5.408;2023-05-24T21:06:42;102362.97;;;14.98;83.05
30338;BME280;17143;51.888;5.408;2023-05-24T21:21:46;102371.22;;;14.77;84.40
30338;BME280;17143;51.888;5.408;2023-05-24T21:36:48;102388.34;;;14.57;85.70
30338;BME280;17143;51.888;5.408;2023-05-24T21:51:52;102399.09;;;14.34;87.55
30338;BME280;17143;51.888;5.408;2023-05-24T22:06:54;102413.63;;;14.16;89.44
30338;BME280;17143;51.888;5.408;2023-05-24T22:21:56;102422.41;;;14.03;90.28
30338;BME280;17143;51.888;5.408;2023-05-24T22:36:58;102434.78;;;13.79;91.17
30338;BME280;17143;51.888;5.408;2023-05-24T22:52:00;102428.94;;;13.57;93.10
30338;BME280;17143;51.888;5.408;2023-05-24T23:07:02;102430.88;;;13.35;94.15
30338;BME280;17143;51.888;5.408;2023-05-24T23:22:05;102440.09;;;13.17;94.12
30338;BME280;17143;51.888;5.408;2023-05-24T23:37:07;102447.44;;;12.98;95.87
30338;BME280;17143;51.888;5.408;2023-05-24T23:52:09;102433.88;;;12.78;96.43
